sensor_id;sensor_type;location;lat;lon;timestamp;temperature;humidity
72604;DHT22;60645;56.968;24.196;2022-09-21T00:01:15;17.40;77.60
72604;DHT22;60645;56.968;24.196;2022-09-21T00:03:43;17.40;77.60
72604;DHT22;60645;56.968;24.196;2022-09-21T00:06:15;17.30;77.50
72604;DHT22;60645;56.968;24.196;2022-09-21T00:08:43;17.30;77.60
72604;DHT22;60645;56.968;24.196;2022-09-21T00:11:22;17.40;77.50
72604;DHT22;60645;56.968;24.196;2022-09-21T00:13:54;17.50;77.40
72604;DHT22;60645;56.968;24.196;2022-09-21T00:16:22;17.40;77.70
72604;DHT22;60645;56.968;24.196;2022-09-21T00:18:50;17.40;77.30
72604;DHT22;60645;56.968;24.196;2022-09-21T00:21:17;17.40;77.50
72604;DHT22;60645;56.968;24.196;2022-09-21T00:23:45;17.40;77.10
72604;DHT22;60645;56.968;24.196;2022-09-21T00:26:18;17.40;77.20
72604;DHT22;60645;56.968;24.196;2022-09-21T00:28:45;17.40;77.10
72604;DHT22;60645;56.968;24.196;2022-09-21T00:31:14;17.40;77.10
72604;DHT22;60645;56.968;24.196;2022-09-21T00:33:43;17.30;77.30
72604;DHT22;60645;56.968;24.196;2022-09-21T00:36:16;17.30;77.90
72604;DHT22;60645;56.968;24.196;2022-09-21T00:38:44;17.40;77.90
72604;DHT22;60645;56.968;24.196;2022-09-21T00:41:12;17.50;77.80
72604;DHT22;60645;56.968;24.196;2022-09-21T00:43:45;17.40;77.50
72604;DHT22;60645;56.968;24.196;2022-09-21T00:46:29;17.40;78.10
72604;DHT22;60645;56.968;24.196;2022-09-21T00:48:57;17.40;77.80
72604;DHT22;60645;56.968;24.196;2022-09-21T00:51:24;17.40;77.60
72604;DHT22;60645;56.968;24.196;2022-09-21T00:53:55;17.40;77.50
72604;DHT22;60645;56.968;24.196;2022-09-21T00:56:25;17.30;77.40
72604;DHT22;60645;56.968;24.196;2022-09-21T00:58:53;17.40;77.70
72604;DHT22;60645;56.968;24.196;2022-09-21T01:01:20;17.30;78.20
72604;DHT22;60645;56.968;24.196;2022-09-21T01:03:49;17.40;77.70
72604;DHT22;60645;56.968;24.196;2022-09-21T01:06:19;17.40;77.80
72604;DHT22;60645;56.968;24.196;2022-09-21T01:08:50;17.40;77.60
72604;DHT22;60645;56.968;24.196;2022-09-21T01:22:38;17.30;78.40
72604;DHT22;60645;56.968;24.196;2022-09-21T01:30:29;17.40;77.80
72604;DHT22;60645;56.968;24.196;2022-09-21T01:33:11;17.40;78.10
72604;DHT22;60645;56.968;24.196;2022-09-21T01:35:58;17.40;78.10
72604;DHT22;60645;56.968;24.196;2022-09-21T01:38:32;17.40;78.50
72604;DHT22;60645;56.968;24.196;2022-09-21T01:41:03;17.40;78.60
72604;DHT22;60645;56.968;24.196;2022-09-21T01:43:54;17.30;78.50
72604;DHT22;60645;56.968;24.196;2022-09-21T01:46:28;17.40;78.70
72604;DHT22;60645;56.968;24.196;2022-09-21T01:48:59;17.30;78.50
72604;DHT22;60645;56.968;24.196;2022-09-21T01:51:32;17.40;78.90
72604;DHT22;60645;56.968;24.196;2022-09-21T01:54:14;17.30;78.40
72604;DHT22;60645;56.968;24.196;2022-09-21T01:59:48;17.20;79.10
72604;DHT22;60645;56.968;24.196;2022-09-21T02:02:24;17.20;79.00
72604;DHT22;60645;56.968;24.196;2022-09-21T02:04:52;17.20;78.80
72604;DHT22;60645;56.968;24.196;2022-09-21T02:07:19;17.30;79.10
72604;DHT22;60645;56.968;24.196;2022-09-21T02:09:47;17.20;78.80
72604;DHT22;60645;56.968;24.196;2022-09-21T02:12:14;17.30;78.90
72604;DHT22;60645;56.968;24.196;2022-09-21T02:14:44;17.30;79.20
72604;DHT22;60645;56.968;24.196;2022-09-21T02:17:37;17.30;79.10
72604;DHT22;60645;56.968;24.196;2022-09-21T02:23:25;17.20;78.80
72604;DHT22;60645;56.968;24.196;2022-09-21T02:25:56;17.20;78.80
72604;DHT22;60645;56.968;24.196;2022-09-21T02:32:15;17.20;79.00
72604;DHT22;60645;56.968;24.196;2022-09-21T02:34:29;17.20;79.30
72604;DHT22;60645;56.968;24.196;2022-09-21T02:37:08;17.20;78.70
72604;DHT22;60645;56.968;24.196;2022-09-21T02:42:21;17.30;78.70
72604;DHT22;60645;56.968;24.196;2022-09-21T02:45:10;17.30;79.00
72604;DHT22;60645;56.968;24.196;2022-09-21T02:47:45;17.20;79.00
72604;DHT22;60645;56.968;24.196;2022-09-21T02:50:21;17.20;79.10
72604;DHT22;60645;56.968;24.196;2022-09-21T02:52:50;17.30;79.00
72604;DHT22;60645;56.968;24.196;2022-09-21T02:55:19;17.20;78.90
72604;DHT22;60645;56.968;24.196;2022-09-21T02:57:47;17.20;79.00
72604;DHT22;60645;56.968;24.196;2022-09-21T03:00:16;17.20;79.00
72604;DHT22;60645;56.968;24.196;2022-09-21T03:02:44;17.20;79.00
72604;DHT22;60645;56.968;24.196;2022-09-21T03:05:12;17.20;79.20
72604;DHT22;60645;56.968;24.196;2022-09-21T03:07:40;17.20;79.50
72604;DHT22;60645;56.968;24.196;2022-09-21T03:10:07;17.20;79.40
72604;DHT22;60645;56.968;24.196;2022-09-21T03:12:35;17.20;79.30
72604;DHT22;60645;56.968;24.196;2022-09-21T03:15:03;17.30;79.60
72604;DHT22;60645;56.968;24.196;2022-09-21T03:17:30;17.20;79.20
72604;DHT22;60645;56.968;24.196;2022-09-21T03:19:57;17.20;79.00
72604;DHT22;60645;56.968;24.196;2022-09-21T03:22:24;17.20;79.40
72604;DHT22;60645;56.968;24.196;2022-09-21T03:24:50;17.30;79.30
72604;DHT22;60645;56.968;24.196;2022-09-21T03:27:20;17.30;79.00
72604;DHT22;60645;56.968;24.196;2022-09-21T03:29:47;17.20;79.30
72604;DHT22;60645;56.968;24.196;2022-09-21T03:32:15;17.20;79.10
72604;DHT22;60645;56.968;24.196;2022-09-21T03:34:42;17.20;79.10
72604;DHT22;60645;56.968;24.196;2022-09-21T03:37:09;17.20;79.20
72604;DHT22;60645;56.968;24.196;2022-09-21T03:39:36;17.10;79.50
72604;DHT22;60645;56.968;24.196;2022-09-21T03:42:03;17.20;78.70
72604;DHT22;60645;56.968;24.196;2022-09-21T03:44:30;17.20;78.50
72604;DHT22;60645;56.968;24.196;2022-09-21T03:46:57;17.20;78.40
72604;DHT22;60645;56.968;24.196;2022-09-21T03:49:24;17.20;78.90
72604;DHT22;60645;56.968;24.196;2022-09-21T03:51:51;17.30;79.00
72604;DHT22;60645;56.968;24.196;2022-09-21T03:54:18;17.40;78.70
72604;DHT22;60645;56.968;24.196;2022-09-21T03:56:45;17.40;78.70
72604;DHT22;60645;56.968;24.196;2022-09-21T03:59:12;17.50;78.50
72604;DHT22;60645;56.968;24.196;2022-09-21T04:01:40;17.50;78.60
72604;DHT22;60645;56.968;24.196;2022-09-21T04:04:08;17.60;78.70
72604;DHT22;60645;56.968;24.196;2022-09-21T04:06:36;17.70;78.80
72604;DHT22;60645;56.968;24.196;2022-09-21T04:09:02;17.70;78.80
72604;DHT22;60645;56.968;24.196;2022-09-21T04:11:29;17.70;78.70
72604;DHT22;60645;56.968;24.196;2022-09-21T04:13:59;17.70;78.30
72604;DHT22;60645;56.968;24.196;2022-09-21T04:16:26;17.80;78.20
72604;DHT22;60645;56.968;24.196;2022-09-21T04:18:54;17.90;78.00
72604;DHT22;60645;56.968;24.196;2022-09-21T04:21:21;17.80;78.10
72604;DHT22;60645;56.968;24.196;2022-09-21T04:23:48;18.00;77.70
72604;DHT22;60645;56.968;24.196;2022-09-21T04:26:33;18.00;78.00
72604;DHT22;60645;56.968;24.196;2022-09-21T04:29:01;18.00;78.10
72604;DHT22;60645;56.968;24.196;2022-09-21T04:31:28;18.10;78.40
72604;DHT22;60645;56.968;24.196;2022-09-21T04:33:56;18.10;78.30
72604;DHT22;60645;56.968;24.196;2022-09-21T04:36:24;18.00;78.40
72604;DHT22;60645;56.968;24.196;2022-09-21T04:38:53;18.10;77.70
72604;DHT22;60645;56.968;24.196;2022-09-21T04:41:20;18.10;78.00
72604;DHT22;60645;56.968;24.196;2022-09-21T04:43:47;18.10;78.10
72604;DHT22;60645;56.968;24.196;2022-09-21T04:46:17;18.20;77.70
72604;DHT22;60645;56.968;24.196;2022-09-21T04:48:44;18.10;78.20
72604;DHT22;60645;56.968;24.196;2022-09-21T04:51:13;18.10;77.90
72604;DHT22;60645;56.968;24.196;2022-09-21T04:53:42;18.20;77.60
72604;DHT22;60645;56.968;24.196;2022-09-21T04:56:12;18.20;77.10
72604;DHT22;60645;56.968;24.196;2022-09-21T04:58:40;18.10;77.30
72604;DHT22;60645;56.968;24.196;2022-09-21T05:01:06;18.20;77.20
72604;DHT22;60645;56.968;24.196;2022-09-21T05:03:34;18.20;76.80
72604;DHT22;60645;56.968;24.196;2022-09-21T05:06:01;18.30;76.40
72604;DHT22;60645;56.968;24.196;2022-09-21T05:08:28;18.20;76.80
72604;DHT22;60645;56.968;24.196;2022-09-21T05:11:16;18.30;76.20
72604;DHT22;60645;56.968;24.196;2022-09-21T05:13:45;18.30;76.40
72604;DHT22;60645;56.968;24.196;2022-09-21T05:16:13;18.30;75.90
72604;DHT22;60645;56.968;24.196;2022-09-21T05:18:40;18.30;75.80
72604;DHT22;60645;56.968;24.196;2022-09-21T05:21:09;18.30;75.80
72604;DHT22;60645;56.968;24.196;2022-09-21T05:23:36;18.30;75.20
72604;DHT22;60645;56.968;24.196;2022-09-21T05:26:04;18.40;74.80
72604;DHT22;60645;56.968;24.196;2022-09-21T05:28:31;18.30;75.30
72604;DHT22;60645;56.968;24.196;2022-09-21T05:34:11;18.30;74.80
72604;DHT22;60645;56.968;24.196;2022-09-21T05:39:44;18.30;74.90
72604;DHT22;60645;56.968;24.196;2022-09-21T05:42:11;18.40;74.60
72604;DHT22;60645;56.968;24.196;2022-09-21T05:44:38;18.40;74.40
72604;DHT22;60645;56.968;24.196;2022-09-21T05:50:05;18.50;73.60
72604;DHT22;60645;56.968;24.196;2022-09-21T05:55:32;18.60;73.10
72604;DHT22;60645;56.968;24.196;2022-09-21T05:58:22;18.60;72.40
72604;DHT22;60645;56.968;24.196;2022-09-21T06:03:45;18.70;72.40
72604;DHT22;60645;56.968;24.196;2022-09-21T06:06:15;18.90;71.80
72604;DHT22;60645;56.968;24.196;2022-09-21T06:08:42;18.90;72.20
72604;DHT22;60645;56.968;24.196;2022-09-21T06:11:09;19.00;71.50
72604;DHT22;60645;56.968;24.196;2022-09-21T06:13:36;19.00;71.00
72604;DHT22;60645;56.968;24.196;2022-09-21T06:16:03;19.20;70.60
72604;DHT22;60645;56.968;24.196;2022-09-21T06:18:30;19.10;70.50
72604;DHT22;60645;56.968;24.196;2022-09-21T06:20:57;19.00;70.10
72604;DHT22;60645;56.968;24.196;2022-09-21T06:23:24;19.10;70.00
72604;DHT22;60645;56.968;24.196;2022-09-21T06:25:52;19.10;70.00
72604;DHT22;60645;56.968;24.196;2022-09-21T06:28:24;19.20;69.70
72604;DHT22;60645;56.968;24.196;2022-09-21T06:30:52;19.20;69.40
72604;DHT22;60645;56.968;24.196;2022-09-21T06:33:19;19.40;70.00
72604;DHT22;60645;56.968;24.196;2022-09-21T06:35:54;19.60;69.40
72604;DHT22;60645;56.968;24.196;2022-09-21T06:38:22;19.80;68.40
72604;DHT22;60645;56.968;24.196;2022-09-21T06:40:50;20.00;68.20
72604;DHT22;60645;56.968;24.196;2022-09-21T06:43:17;20.00;67.90
72604;DHT22;60645;56.968;24.196;2022-09-21T06:45:52;20.20;67.10
72604;DHT22;60645;56.968;24.196;2022-09-21T06:48:20;20.30;66.90
72604;DHT22;60645;56.968;24.196;2022-09-21T06:50:47;20.50;66.30
72604;DHT22;60645;56.968;24.196;2022-09-21T06:53:14;20.60;66.00
72604;DHT22;60645;56.968;24.196;2022-09-21T06:55:41;20.60;65.60
72604;DHT22;60645;56.968;24.196;2022-09-21T06:58:08;20.70;65.30
72604;DHT22;60645;56.968;24.196;2022-09-21T07:00:36;20.60;65.00
72604;DHT22;60645;56.968;24.196;2022-09-21T07:03:02;20.70;64.80
72604;DHT22;60645;56.968;24.196;2022-09-21T07:05:31;20.60;64.50
72604;DHT22;60645;56.968;24.196;2022-09-21T07:07:59;20.70;64.00
72604;DHT22;60645;56.968;24.196;2022-09-21T07:10:26;20.60;64.30
72604;DHT22;60645;56.968;24.196;2022-09-21T07:12:54;20.60;64.10
72604;DHT22;60645;56.968;24.196;2022-09-21T07:15:21;21.00;62.70
72604;DHT22;60645;56.968;24.196;2022-09-21T07:17:49;21.60;62.10
72604;DHT22;60645;56.968;24.196;2022-09-21T07:20:18;22.50;60.60
72604;DHT22;60645;56.968;24.196;2022-09-21T07:22:44;23.10;59.00
72604;DHT22;60645;56.968;24.196;2022-09-21T07:25:12;23.60;57.90
72604;DHT22;60645;56.968;24.196;2022-09-21T07:27:39;24.60;56.50
72604;DHT22;60645;56.968;24.196;2022-09-21T07:30:06;25.40;54.40
72604;DHT22;60645;56.968;24.196;2022-09-21T07:32:34;26.20;52.90
72604;DHT22;60645;56.968;24.196;2022-09-21T07:35:02;26.90;51.30
72604;DHT22;60645;56.968;24.196;2022-09-21T07:37:30;27.60;50.20
72604;DHT22;60645;56.968;24.196;2022-09-21T07:39:57;28.00;49.50
72604;DHT22;60645;56.968;24.196;2022-09-21T07:42:24;28.40;49.00
72604;DHT22;60645;56.968;24.196;2022-09-21T07:44:53;28.80;48.20
72604;DHT22;60645;56.968;24.196;2022-09-21T07:47:29;29.10;47.80
72604;DHT22;60645;56.968;24.196;2022-09-21T07:49:57;29.30;47.50
72604;DHT22;60645;56.968;24.196;2022-09-21T07:52:23;29.60;47.10
72604;DHT22;60645;56.968;24.196;2022-09-21T07:54:50;29.80;46.40
72604;DHT22;60645;56.968;24.196;2022-09-21T07:57:17;30.00;46.30
72604;DHT22;60645;56.968;24.196;2022-09-21T08:00:03;30.20;45.80
72604;DHT22;60645;56.968;24.196;2022-09-21T08:02:30;30.70;45.50
72604;DHT22;60645;56.968;24.196;2022-09-21T08:04:57;30.70;45.20
72604;DHT22;60645;56.968;24.196;2022-09-21T08:07:24;31.00;44.90
72604;DHT22;60645;56.968;24.196;2022-09-21T08:09:52;31.00;44.50
72604;DHT22;60645;56.968;24.196;2022-09-21T08:12:19;31.00;44.80
72604;DHT22;60645;56.968;24.196;2022-09-21T08:14:46;31.00;44.50
72604;DHT22;60645;56.968;24.196;2022-09-21T08:17:13;30.80;44.80
72604;DHT22;60645;56.968;24.196;2022-09-21T08:19:41;30.60;45.00
72604;DHT22;60645;56.968;24.196;2022-09-21T08:22:07;30.60;45.00
72604;DHT22;60645;56.968;24.196;2022-09-21T08:24:34;30.30;44.70
72604;DHT22;60645;56.968;24.196;2022-09-21T08:27:02;30.10;45.20
72604;DHT22;60645;56.968;24.196;2022-09-21T08:29:29;29.90;45.60
72604;DHT22;60645;56.968;24.196;2022-09-21T08:31:56;29.70;46.00
72604;DHT22;60645;56.968;24.196;2022-09-21T08:34:23;29.30;46.40
72604;DHT22;60645;56.968;24.196;2022-09-21T08:36:50;29.10;46.60
72604;DHT22;60645;56.968;24.196;2022-09-21T08:39:21;29.30;46.40
72604;DHT22;60645;56.968;24.196;2022-09-21T08:45:11;28.90;46.60
72604;DHT22;60645;56.968;24.196;2022-09-21T08:47:51;28.60;47.20
72604;DHT22;60645;56.968;24.196;2022-09-21T08:50:38;28.40;47.80
72604;DHT22;60645;56.968;24.196;2022-09-21T08:53:24;28.30;47.70
72604;DHT22;60645;56.968;24.196;2022-09-21T08:55:55;28.30;47.50
72604;DHT22;60645;56.968;24.196;2022-09-21T08:58:23;28.20;47.70
72604;DHT22;60645;56.968;24.196;2022-09-21T09:21:42;31.50;42.70
72604;DHT22;60645;56.968;24.196;2022-09-21T09:26:57;31.90;42.30
72604;DHT22;60645;56.968;24.196;2022-09-21T09:29:39;32.00;41.60
72604;DHT22;60645;56.968;24.196;2022-09-21T09:32:15;30.90;42.80
72604;DHT22;60645;56.968;24.196;2022-09-21T09:34:58;29.60;44.20
72604;DHT22;60645;56.968;24.196;2022-09-21T09:37:32;28.80;45.50
72604;DHT22;60645;56.968;24.196;2022-09-21T09:40:02;28.10;47.00
72604;DHT22;60645;56.968;24.196;2022-09-21T09:45:28;27.10;48.40
72604;DHT22;60645;56.968;24.196;2022-09-21T09:50:52;26.40;50.10
72604;DHT22;60645;56.968;24.196;2022-09-21T09:53:21;26.20;50.60
72604;DHT22;60645;56.968;24.196;2022-09-21T09:55:54;26.10;50.70
72604;DHT22;60645;56.968;24.196;2022-09-21T10:01:43;25.70;51.30
72604;DHT22;60645;56.968;24.196;2022-09-21T10:04:14;25.60;51.60
72604;DHT22;60645;56.968;24.196;2022-09-21T10:06:42;25.60;51.30
72604;DHT22;60645;56.968;24.196;2022-09-21T10:11:57;25.50;51.90
72604;DHT22;60645;56.968;24.196;2022-09-21T10:14:27;25.60;51.60
72604;DHT22;60645;56.968;24.196;2022-09-21T10:16:56;25.50;51.60
72604;DHT22;60645;56.968;24.196;2022-09-21T10:19:26;25.50;51.90
72604;DHT22;60645;56.968;24.196;2022-09-21T10:22:01;25.60;51.50
72604;DHT22;60645;56.968;24.196;2022-09-21T10:24:35;25.80;51.60
72604;DHT22;60645;56.968;24.196;2022-09-21T10:29:44;25.70;51.10
72604;DHT22;60645;56.968;24.196;2022-09-21T10:37:40;25.80;51.40
72604;DHT22;60645;56.968;24.196;2022-09-21T10:42:53;25.50;51.60
72604;DHT22;60645;56.968;24.196;2022-09-21T10:45:28;25.50;51.60
72604;DHT22;60645;56.968;24.196;2022-09-21T10:47:58;25.40;52.00
72604;DHT22;60645;56.968;24.196;2022-09-21T10:50:40;25.10;52.50
72604;DHT22;60645;56.968;24.196;2022-09-21T10:55:43;25.00;53.20
72604;DHT22;60645;56.968;24.196;2022-09-21T10:58:34;25.00;53.40
72604;DHT22;60645;56.968;24.196;2022-09-21T11:01:20;24.70;53.50
72604;DHT22;60645;56.968;24.196;2022-09-21T11:04:05;24.60;53.70
72604;DHT22;60645;56.968;24.196;2022-09-21T11:06:38;24.40;54.00
72604;DHT22;60645;56.968;24.196;2022-09-21T11:09:31;24.20;54.40
72604;DHT22;60645;56.968;24.196;2022-09-21T11:12:20;24.10;54.40
72604;DHT22;60645;56.968;24.196;2022-09-21T11:14:55;23.90;55.00
72604;DHT22;60645;56.968;24.196;2022-09-21T11:18:29;23.70;55.20
72604;DHT22;60645;56.968;24.196;2022-09-21T11:21:00;23.60;55.80
72604;DHT22;60645;56.968;24.196;2022-09-21T11:26:28;23.40;56.30
72604;DHT22;60645;56.968;24.196;2022-09-21T11:45:31;23.20;56.90
72604;DHT22;60645;56.968;24.196;2022-09-21T11:48:15;23.30;56.60
72604;DHT22;60645;56.968;24.196;2022-09-21T11:56:52;23.30;56.50
72604;DHT22;60645;56.968;24.196;2022-09-21T12:10:40;22.90;56.90
72604;DHT22;60645;56.968;24.196;2022-09-21T12:13:24;22.90;56.90
72604;DHT22;60645;56.968;24.196;2022-09-21T12:16:28;22.90;57.10
72604;DHT22;60645;56.968;24.196;2022-09-21T12:22:12;22.90;57.00
72604;DHT22;60645;56.968;24.196;2022-09-21T12:24:44;23.00;57.10
72604;DHT22;60645;56.968;24.196;2022-09-21T12:27:38;22.90;56.90
72604;DHT22;60645;56.968;24.196;2022-09-21T12:30:11;22.90;57.10
72604;DHT22;60645;56.968;24.196;2022-09-21T12:35:38;22.90;56.90
72604;DHT22;60645;56.968;24.196;2022-09-21T12:41:22;22.70;57.00
72604;DHT22;60645;56.968;24.196;2022-09-21T12:46:39;22.70;57.30
72604;DHT22;60645;56.968;24.196;2022-09-21T12:49:16;22.70;57.30
72604;DHT22;60645;56.968;24.196;2022-09-21T12:51:50;22.70;56.90
72604;DHT22;60645;56.968;24.196;2022-09-21T12:54:32;22.80;57.10
72604;DHT22;60645;56.968;24.196;2022-09-21T13:00:10;22.60;56.80
72604;DHT22;60645;56.968;24.196;2022-09-21T13:08:38;22.20;58.00
72604;DHT22;60645;56.968;24.196;2022-09-21T13:11:08;22.20;58.50
72604;DHT22;60645;56.968;24.196;2022-09-21T13:13:48;22.10;58.20
72604;DHT22;60645;56.968;24.196;2022-09-21T13:16:38;22.10;58.80
72604;DHT22;60645;56.968;24.196;2022-09-21T13:19:21;22.00;58.80
72604;DHT22;60645;56.968;24.196;2022-09-21T13:22:23;21.90;59.10
72604;DHT22;60645;56.968;24.196;2022-09-21T13:25:20;21.80;59.30
72604;DHT22;60645;56.968;24.196;2022-09-21T13:36:41;21.70;59.80
72604;DHT22;60645;56.968;24.196;2022-09-21T13:41:36;21.70;59.60
72604;DHT22;60645;56.968;24.196;2022-09-21T13:44:42;21.70;59.50
72604;DHT22;60645;56.968;24.196;2022-09-21T13:47:09;21.70;59.40
72604;DHT22;60645;56.968;24.196;2022-09-21T13:49:47;21.60;59.40
72604;DHT22;60645;56.968;24.196;2022-09-21T13:52:37;21.60;59.80
72604;DHT22;60645;56.968;24.196;2022-09-21T13:55:23;21.60;59.80
72604;DHT22;60645;56.968;24.196;2022-09-21T13:57:52;21.50;59.90
72604;DHT22;60645;56.968;24.196;2022-09-21T14:05:28;21.50;60.00
72604;DHT22;60645;56.968;24.196;2022-09-21T14:08:04;21.40;60.00
72604;DHT22;60645;56.968;24.196;2022-09-21T14:10:36;21.40;60.30
72604;DHT22;60645;56.968;24.196;2022-09-21T14:13:20;21.30;60.30
72604;DHT22;60645;56.968;24.196;2022-09-21T14:15:48;21.40;60.10
72604;DHT22;60645;56.968;24.196;2022-09-21T14:18:19;21.30;60.40
72604;DHT22;60645;56.968;24.196;2022-09-21T14:21:09;21.20;60.50
72604;DHT22;60645;56.968;24.196;2022-09-21T14:23:37;21.10;60.40
72604;DHT22;60645;56.968;24.196;2022-09-21T14:26:32;21.10;60.40
72604;DHT22;60645;56.968;24.196;2022-09-21T14:29:07;21.10;60.60
72604;DHT22;60645;56.968;24.196;2022-09-21T14:31:39;20.90;61.10
72604;DHT22;60645;56.968;24.196;2022-09-21T14:34:12;21.00;60.80
72604;DHT22;60645;56.968;24.196;2022-09-21T14:36:44;21.00;61.00
72604;DHT22;60645;56.968;24.196;2022-09-21T14:39:18;20.90;61.40
72604;DHT22;60645;56.968;24.196;2022-09-21T14:41:48;20.80;61.10
72604;DHT22;60645;56.968;24.196;2022-09-21T14:44:19;20.70;61.30
72604;DHT22;60645;56.968;24.196;2022-09-21T14:49:35;20.70;61.70
72604;DHT22;60645;56.968;24.196;2022-09-21T14:58:05;20.50;61.80
72604;DHT22;60645;56.968;24.196;2022-09-21T15:00:42;20.50;62.20
72604;DHT22;60645;56.968;24.196;2022-09-21T15:06:01;20.30;62.60
72604;DHT22;60645;56.968;24.196;2022-09-21T15:12:15;20.20;62.60
72604;DHT22;60645;56.968;24.196;2022-09-21T15:14:59;20.20;62.70
72604;DHT22;60645;56.968;24.196;2022-09-21T15:17:30;20.10;63.20
72604;DHT22;60645;56.968;24.196;2022-09-21T15:19:59;20.00;63.30
72604;DHT22;60645;56.968;24.196;2022-09-21T15:22:29;20.00;63.30
72604;DHT22;60645;56.968;24.196;2022-09-21T15:25:02;20.00;63.60
72604;DHT22;60645;56.968;24.196;2022-09-21T15:27:30;19.90;63.90
72604;DHT22;60645;56.968;24.196;2022-09-21T15:30:02;19.90;64.10
72604;DHT22;60645;56.968;24.196;2022-09-21T15:32:45;19.80;64.00
72604;DHT22;60645;56.968;24.196;2022-09-21T15:35:24;19.70;64.10
72604;DHT22;60645;56.968;24.196;2022-09-21T15:37:54;19.70;64.20
72604;DHT22;60645;56.968;24.196;2022-09-21T15:40:29;19.70;64.20
72604;DHT22;60645;56.968;24.196;2022-09-21T15:43:13;19.70;64.70
72604;DHT22;60645;56.968;24.196;2022-09-21T15:48:21;19.50;64.70
72604;DHT22;60645;56.968;24.196;2022-09-21T15:53:54;19.50;65.20
72604;DHT22;60645;56.968;24.196;2022-09-21T15:56:23;19.50;65.50
72604;DHT22;60645;56.968;24.196;2022-09-21T15:58:58;19.40;65.50
72604;DHT22;60645;56.968;24.196;2022-09-21T16:01:43;19.30;65.90
72604;DHT22;60645;56.968;24.196;2022-09-21T16:04:11;19.30;65.90
72604;DHT22;60645;56.968;24.196;2022-09-21T16:06:40;19.30;66.20
72604;DHT22;60645;56.968;24.196;2022-09-21T16:09:43;19.20;66.20
72604;DHT22;60645;56.968;24.196;2022-09-21T16:12:39;19.20;66.20
72604;DHT22;60645;56.968;24.196;2022-09-21T16:15:22;19.20;66.10
72604;DHT22;60645;56.968;24.196;2022-09-21T16:18:03;19.20;66.70
72604;DHT22;60645;56.968;24.196;2022-09-21T16:20:52;19.10;66.60
72604;DHT22;60645;56.968;24.196;2022-09-21T16:23:29;19.10;66.70
72604;DHT22;60645;56.968;24.196;2022-09-21T16:25:58;19.00;66.70
72604;DHT22;60645;56.968;24.196;2022-09-21T16:28:38;19.00;66.90
72604;DHT22;60645;56.968;24.196;2022-09-21T16:31:30;19.00;67.20
72604;DHT22;60645;56.968;24.196;2022-09-21T16:33:59;18.90;67.10
72604;DHT22;60645;56.968;24.196;2022-09-21T16:39:04;18.80;67.30
72604;DHT22;60645;56.968;24.196;2022-09-21T16:42:03;18.80;67.60
72604;DHT22;60645;56.968;24.196;2022-09-21T16:44:29;18.80;67.60
72604;DHT22;60645;56.968;24.196;2022-09-21T16:47:15;18.80;67.80
72604;DHT22;60645;56.968;24.196;2022-09-21T16:49:43;18.70;67.50
72604;DHT22;60645;56.968;24.196;2022-09-21T16:52:10;18.70;67.60
72604;DHT22;60645;56.968;24.196;2022-09-21T16:54:37;18.70;67.70
72604;DHT22;60645;56.968;24.196;2022-09-21T16:57:08;18.70;67.70
72604;DHT22;60645;56.968;24.196;2022-09-21T16:59:36;18.70;68.10
72604;DHT22;60645;56.968;24.196;2022-09-21T17:02:02;18.70;67.70
72604;DHT22;60645;56.968;24.196;2022-09-21T17:04:32;18.70;67.70
72604;DHT22;60645;56.968;24.196;2022-09-21T17:07:00;18.60;68.20
72604;DHT22;60645;56.968;24.196;2022-09-21T17:09:37;18.60;68.20
72604;DHT22;60645;56.968;24.196;2022-09-21T17:12:07;18.60;68.50
72604;DHT22;60645;56.968;24.196;2022-09-21T17:14:35;18.50;68.40
72604;DHT22;60645;56.968;24.196;2022-09-21T17:17:23;18.50;68.10
72604;DHT22;60645;56.968;24.196;2022-09-21T17:19:52;18.50;67.90
72604;DHT22;60645;56.968;24.196;2022-09-21T17:22:19;18.50;68.20
72604;DHT22;60645;56.968;24.196;2022-09-21T17:24:49;18.50;68.40
72604;DHT22;60645;56.968;24.196;2022-09-21T17:27:20;18.50;68.30
72604;DHT22;60645;56.968;24.196;2022-09-21T17:29:47;18.50;68.70
72604;DHT22;60645;56.968;24.196;2022-09-21T17:32:20;18.50;68.60
72604;DHT22;60645;56.968;24.196;2022-09-21T17:34:57;18.60;68.70
72604;DHT22;60645;56.968;24.196;2022-09-21T17:37:25;18.50;68.30
72604;DHT22;60645;56.968;24.196;2022-09-21T17:39:52;18.50;68.40
72604;DHT22;60645;56.968;24.196;2022-09-21T17:42:21;18.50;68.30
72604;DHT22;60645;56.968;24.196;2022-09-21T17:47:52;18.50;68.50
72604;DHT22;60645;56.968;24.196;2022-09-21T17:50:25;18.50;68.60
72604;DHT22;60645;56.968;24.196;2022-09-21T17:52:54;18.50;68.20
72604;DHT22;60645;56.968;24.196;2022-09-21T17:55:47;18.50;68.10
72604;DHT22;60645;56.968;24.196;2022-09-21T18:01:17;18.50;68.50
72604;DHT22;60645;56.968;24.196;2022-09-21T18:03:47;18.40;68.40
72604;DHT22;60645;56.968;24.196;2022-09-21T18:06:17;18.50;68.50
72604;DHT22;60645;56.968;24.196;2022-09-21T18:08:44;18.50;68.50
72604;DHT22;60645;56.968;24.196;2022-09-21T18:16:43;18.50;68.30
72604;DHT22;60645;56.968;24.196;2022-09-21T18:23:26;18.40;68.60
72604;DHT22;60645;56.968;24.196;2022-09-21T18:25:30;18.40;67.90
72604;DHT22;60645;56.968;24.196;2022-09-21T18:28:08;18.40;68.30
72604;DHT22;60645;56.968;24.196;2022-09-21T18:30:41;18.40;68.20
72604;DHT22;60645;56.968;24.196;2022-09-21T18:33:27;18.40;68.40
72604;DHT22;60645;56.968;24.196;2022-09-21T18:39:00;18.40;68.30
72604;DHT22;60645;56.968;24.196;2022-09-21T18:41:38;18.40;68.70
72604;DHT22;60645;56.968;24.196;2022-09-21T18:47:24;18.30;68.20
72604;DHT22;60645;56.968;24.196;2022-09-21T18:49:55;18.30;68.40
72604;DHT22;60645;56.968;24.196;2022-09-21T18:52:53;18.40;68.90
72604;DHT22;60645;56.968;24.196;2022-09-21T18:55:23;18.30;68.40
72604;DHT22;60645;56.968;24.196;2022-09-21T18:57:54;18.30;68.20
72604;DHT22;60645;56.968;24.196;2022-09-21T19:00:21;18.30;68.60
72604;DHT22;60645;56.968;24.196;2022-09-21T19:02:48;18.30;68.20
72604;DHT22;60645;56.968;24.196;2022-09-21T19:05:37;18.30;68.20
72604;DHT22;60645;56.968;24.196;2022-09-21T19:08:27;18.30;68.10
72604;DHT22;60645;56.968;24.196;2022-09-21T19:11:29;18.30;68.60
72604;DHT22;60645;56.968;24.196;2022-09-21T19:25:26;18.30;68.50
72604;DHT22;60645;56.968;24.196;2022-09-21T19:30:57;18.30;68.00
72604;DHT22;60645;56.968;24.196;2022-09-21T19:33:30;18.30;68.70
72604;DHT22;60645;56.968;24.196;2022-09-21T19:36:16;18.20;68.30
72604;DHT22;60645;56.968;24.196;2022-09-21T19:38:43;18.30;68.50